createdAt,value
2022-12-08T00:01:20.104Z,45.97
2022-12-08T00:03:47.834Z,47.92
2022-12-08T00:06:43.496Z,45.90
2022-12-08T00:09:20.962Z,43.15
2022-12-08T00:12:08.223Z,42.95
2022-12-08T00:14:40.909Z,43.22
2022-12-08T00:17:09.083Z,47.05
2022-12-08T00:19:36.575Z,42.65
2022-12-08T00:22:05.581Z,43.10
2022-12-08T00:24:34.417Z,43.70
2022-12-08T00:27:02.067Z,45.20
2022-12-08T00:29:32.712Z,46.33
2022-12-08T00:31:59.420Z,45.58
2022-12-08T00:34:26.093Z,47.53
2022-12-08T00:36:52.715Z,46.70
2022-12-08T00:39:19.459Z,44.20
2022-12-08T00:41:46.366Z,51.85
2022-12-08T00:44:16.074Z,45.88
2022-12-08T00:46:46.653Z,46.78
2022-12-08T00:49:17.844Z,45.25
2022-12-08T00:51:45.455Z,45.30
2022-12-08T00:54:12.149Z,44.30
2022-12-08T00:56:39.294Z,46.60
2022-12-08T00:59:07.229Z,43.33
2022-12-08T01:01:38.497Z,43.90
2022-12-08T01:04:12.842Z,44.35
2022-12-08T01:06:43.102Z,44.30
2022-12-08T01:09:21.214Z,46.08
2022-12-08T01:11:49.036Z,43.17
2022-12-08T01:14:17.373Z,46.83
2022-12-08T01:16:45.788Z,46.13
2022-12-08T01:19:15.228Z,43.50
2022-12-08T01:21:43.237Z,43.10
2022-12-08T01:24:16.532Z,43.50
2022-12-08T01:26:49.104Z,42.95
2022-12-08T01:29:30.360Z,42.08
2022-12-08T01:31:57.417Z,40.38
2022-12-08T01:34:24.422Z,41.38
2022-12-08T01:36:54.816Z,40.20
2022-12-08T01:39:38.958Z,41.60
2022-12-08T01:42:24.475Z,42.95
2022-12-08T01:45:21.353Z,42.08
2022-12-08T01:47:51.331Z,42.08
2022-12-08T01:50:27.037Z,41.05
2022-12-08T02:05:44.741Z,42.08
2022-12-08T02:08:13.251Z,42.95
2022-12-08T02:10:45.480Z,42.38
2022-12-08T02:13:19.048Z,40.65
2022-12-08T02:16:05.608Z,44.47
2022-12-08T02:19:08.267Z,41.03
2022-12-08T02:21:51.239Z,42.83
2022-12-08T02:24:51.981Z,39.80
2022-12-08T02:27:18.774Z,40.78
2022-12-08T02:30:05.974Z,41.75
2022-12-08T02:33:11.742Z,43.15
2022-12-08T02:35:59.845Z,40.13
2022-12-08T02:38:46.471Z,39.83
2022-12-08T02:41:47.083Z,39.25
2022-12-08T02:44:29.093Z,38.85
2022-12-08T02:47:24.196Z,38.83
2022-12-08T02:49:50.848Z,41.97
2022-12-08T02:52:17.427Z,40.70
2022-12-08T02:54:51.783Z,42.53
2022-12-08T02:57:39.226Z,44.38
2022-12-08T03:00:27.778Z,40.90
2022-12-08T03:03:00.652Z,42.67
2022-12-08T03:05:39.451Z,42.53
2022-12-08T03:08:30.273Z,43.42
2022-12-08T03:11:21.407Z,43.40
2022-12-08T03:14:01.626Z,45.42
2022-12-08T03:16:30.733Z,40.47
2022-12-08T03:19:09.720Z,45.03
2022-12-08T03:21:39.741Z,41.47
2022-12-08T03:24:08.134Z,41.03
2022-12-08T03:26:46.303Z,43.13
2022-12-08T03:29:13.806Z,40.83
2022-12-08T03:31:49.467Z,41.08
2022-12-08T03:34:17.870Z,39.75
2022-12-08T03:36:47.875Z,39.58
2022-12-08T03:39:15.775Z,37.60
2022-12-08T03:41:42.457Z,37.10
2022-12-08T03:44:09.075Z,37.58
2022-12-08T03:46:40.254Z,36.50
2022-12-08T03:49:06.831Z,37.85
2022-12-08T03:51:33.510Z,37.05
2022-12-08T03:54:00.164Z,37.60
2022-12-08T03:56:29.406Z,39.47
2022-12-08T03:58:57.832Z,36.45
2022-12-08T04:01:27.198Z,34.97
2022-12-08T04:03:54.572Z,38.10
2022-12-08T04:06:22.392Z,37.00
2022-12-08T04:08:50.673Z,36.22
2022-12-08T04:11:18.658Z,36.92
2022-12-08T04:13:45.744Z,37.60
2022-12-08T04:16:23.470Z,38.25
2022-12-08T04:18:50.795Z,40.58
2022-12-08T04:21:17.946Z,37.92
2022-12-08T04:23:45.288Z,38.70
2022-12-08T04:26:13.109Z,40.67
2022-12-08T04:28:40.031Z,37.90
2022-12-08T04:31:07.240Z,40.47
2022-12-08T04:33:37.867Z,39.78
2022-12-08T04:36:06.296Z,40.95
2022-12-08T04:38:37.827Z,38.53
2022-12-08T04:41:04.526Z,40.55
2022-12-08T04:43:41.315Z,41.13
2022-12-08T04:46:09.050Z,36.75
2022-12-08T04:48:39.725Z,38.70
2022-12-08T04:51:07.607Z,39.95
2022-12-08T04:53:34.251Z,37.70
2022-12-08T04:56:04.074Z,38.63
2022-12-08T04:58:31.645Z,38.25
2022-12-08T05:00:58.301Z,35.95
2022-12-08T05:03:28.833Z,38.80
2022-12-08T05:05:56.123Z,37.78
2022-12-08T05:08:22.915Z,38.88
2022-12-08T05:10:49.631Z,38.15
2022-12-08T05:13:16.264Z,37.22
2022-12-08T05:15:43.059Z,40.40
2022-12-08T05:18:09.952Z,38.83
2022-12-08T05:20:36.886Z,40.33
2022-12-08T05:23:03.534Z,40.03
2022-12-08T05:25:30.231Z,40.05
2022-12-08T05:28:17.470Z,37.30
2022-12-08T05:30:44.674Z,36.85
2022-12-08T05:33:11.366Z,35.28
2022-12-08T05:35:40.983Z,37.40
2022-12-08T05:38:08.004Z,33.20
2022-12-08T05:40:34.652Z,35.03
2022-12-08T05:43:01.265Z,34.65
2022-12-08T05:45:28.103Z,34.28
2022-12-08T05:47:54.995Z,34.35
2022-12-08T05:50:24.474Z,34.75
2022-12-08T05:52:51.145Z,34.13
2022-12-08T05:55:17.848Z,35.78
2022-12-08T05:57:44.529Z,34.25
2022-12-08T06:00:11.681Z,36.40
2022-12-08T06:02:38.602Z,33.33
2022-12-08T06:05:05.744Z,33.22
2022-12-08T06:07:32.407Z,33.15
2022-12-08T06:09:59.116Z,34.58
2022-12-08T06:12:29.679Z,34.00
2022-12-08T06:14:56.298Z,31.10
2022-12-08T06:17:24.158Z,32.33
2022-12-08T06:19:50.832Z,31.52
2022-12-08T06:22:17.877Z,34.60
2022-12-08T06:24:44.572Z,31.88
2022-12-08T06:27:11.957Z,29.98
2022-12-08T06:29:38.772Z,31.30
2022-12-08T06:32:05.712Z,32.33
2022-12-08T06:34:32.467Z,30.92
2022-12-08T06:36:59.958Z,31.48
2022-12-08T06:39:29.034Z,31.02
2022-12-08T06:41:55.962Z,30.23
2022-12-08T06:44:22.806Z,28.85
2022-12-08T06:46:49.473Z,28.23
2022-12-08T06:49:19.231Z,30.88
2022-12-08T06:51:45.986Z,29.85
2022-12-08T06:54:12.627Z,30.15
2022-12-08T06:56:43.666Z,29.00
2022-12-08T06:59:10.316Z,28.67
2022-12-08T07:01:37.057Z,31.02
2022-12-08T07:04:04.227Z,29.23
2022-12-08T07:06:33.980Z,29.15
2022-12-08T07:09:00.777Z,28.88
2022-12-08T07:11:31.393Z,29.02
2022-12-08T07:13:58.165Z,30.17
2022-12-08T07:16:28.038Z,28.45
2022-12-08T07:18:54.836Z,29.05
2022-12-08T07:21:21.851Z,30.05
2022-12-08T07:23:57.341Z,30.75
2022-12-08T07:26:24.532Z,30.95
2022-12-08T07:28:51.191Z,32.28
2022-12-08T07:31:22.388Z,29.98
2022-12-08T07:33:49.304Z,30.88
2022-12-08T07:36:16.653Z,30.70
2022-12-08T07:38:43.593Z,31.90
2022-12-08T07:41:16.479Z,32.20
2022-12-08T07:43:43.828Z,29.40
2022-12-08T07:46:15.201Z,31.35
2022-12-08T07:48:45.942Z,33.25
2022-12-08T07:51:17.142Z,31.45
2022-12-08T07:53:51.636Z,30.90
2022-12-08T07:56:21.006Z,32.60
2022-12-08T07:58:47.662Z,32.17
2022-12-08T08:01:26.371Z,32.85
2022-12-08T08:03:54.897Z,30.35
2022-12-08T08:06:21.712Z,31.63
2022-12-08T08:08:48.697Z,33.35
2022-12-08T08:11:20.880Z,32.40
2022-12-08T08:13:50.929Z,31.83
2022-12-08T08:16:18.891Z,33.72
2022-12-08T08:18:49.010Z,34.88
2022-12-08T08:21:43.905Z,35.25
2022-12-08T08:24:02.879Z,31.98
2022-12-08T08:26:29.815Z,35.83
2022-12-08T08:28:56.637Z,34.08
2022-12-08T08:31:27.273Z,35.60
2022-12-08T08:33:55.265Z,34.13
2022-12-08T08:36:22.065Z,34.72
2022-12-08T08:38:52.594Z,35.20
2022-12-08T08:41:19.346Z,34.65
2022-12-08T08:43:46.017Z,33.38
2022-12-08T08:46:12.745Z,34.05
2022-12-08T08:48:39.453Z,34.47
2022-12-08T08:51:17.209Z,34.63
2022-12-08T08:53:43.979Z,35.50
2022-12-08T08:56:12.050Z,34.25
2022-12-08T08:58:39.120Z,33.90
2022-12-08T09:01:05.940Z,35.60
2022-12-08T09:03:36.907Z,34.80
2022-12-08T09:06:04.216Z,34.38
2022-12-08T09:08:31.036Z,35.05
2022-12-08T09:10:57.775Z,35.20
2022-12-08T09:13:24.729Z,35.88
2022-12-08T09:15:51.377Z,35.75
2022-12-08T09:18:18.161Z,33.80
2022-12-08T09:20:44.799Z,32.42
2022-12-08T09:23:11.471Z,33.65
2022-12-08T09:25:38.138Z,33.85
2022-12-08T09:28:04.809Z,36.40
2022-12-08T09:30:31.481Z,36.10
2022-12-08T09:32:58.213Z,34.95
2022-12-08T09:35:24.917Z,34.75
2022-12-08T09:37:52.199Z,34.97
2022-12-08T09:40:22.677Z,36.40
2022-12-08T09:42:55.594Z,34.10
2022-12-08T09:45:24.916Z,34.78
2022-12-08T09:48:12.130Z,37.03
2022-12-08T09:50:48.545Z,36.30
2022-12-08T09:53:21.164Z,34.40
2022-12-08T09:56:00.324Z,37.03
2022-12-08T09:58:45.636Z,36.45
2022-12-08T10:01:12.523Z,34.60
2022-12-08T10:03:40.531Z,36.35
2022-12-08T10:06:15.548Z,36.20
2022-12-08T10:08:50.382Z,36.03
2022-12-08T10:11:43.050Z,36.70
2022-12-08T10:14:26.479Z,36.53
2022-12-08T10:17:01.661Z,36.05
2022-12-08T10:19:29.227Z,37.58
2022-12-08T10:21:57.069Z,35.33
2022-12-08T10:24:33.828Z,38.20
2022-12-08T10:27:01.759Z,38.78
2022-12-08T10:29:28.461Z,37.60
2022-12-08T10:31:58.544Z,37.03
2022-12-08T10:34:25.597Z,36.92
2022-12-08T10:36:57.206Z,38.33
2022-12-08T10:39:32.415Z,36.95
2022-12-08T10:42:20.797Z,38.60
2022-12-08T10:45:02.388Z,37.80
2022-12-08T10:47:30.389Z,40.13
2022-12-08T10:50:22.808Z,38.78
2022-12-08T10:53:12.318Z,39.40
2022-12-08T10:55:45.358Z,39.78
2022-12-08T10:58:38.047Z,37.53
2022-12-08T11:01:33.353Z,39.22
2022-12-08T11:06:32.809Z,35.95
2022-12-08T11:09:05.618Z,37.05
2022-12-08T11:11:41.985Z,39.53
2022-12-08T11:14:14.215Z,37.70
2022-12-08T11:16:46.535Z,37.72
2022-12-08T11:19:17.953Z,36.75
2022-12-08T11:21:44.755Z,38.53
2022-12-08T11:24:14.535Z,39.13
2022-12-08T11:26:48.622Z,39.10
2022-12-08T11:29:15.349Z,39.90
2022-12-08T11:31:54.284Z,39.03
2022-12-08T11:34:35.183Z,39.80
2022-12-08T11:37:07.008Z,38.65
2022-12-08T11:39:44.248Z,41.17
2022-12-08T11:42:14.970Z,38.30
2022-12-08T11:45:02.921Z,40.05
2022-12-08T11:47:55.992Z,39.70
2022-12-08T11:50:31.657Z,38.90
2022-12-08T11:52:59.885Z,40.67
2022-12-08T11:55:27.209Z,41.95
2022-12-08T11:57:57.301Z,41.33
2022-12-08T12:00:27.603Z,42.17
2022-12-08T12:03:12.833Z,40.63
2022-12-08T12:06:12.558Z,42.08
2022-12-08T12:09:05.769Z,42.10
2022-12-08T12:11:50.222Z,40.53
2022-12-08T12:14:42.777Z,41.90
2022-12-08T12:17:30.794Z,40.63
2022-12-08T12:20:00.974Z,40.63
2022-12-08T12:22:35.269Z,40.83
2022-12-08T12:27:39.162Z,40.30
2022-12-08T12:30:20.484Z,41.15
2022-12-08T12:33:01.940Z,41.25
2022-12-08T12:35:41.364Z,40.30
2022-12-08T12:38:24.889Z,39.45
2022-12-08T12:43:35.548Z,41.78
2022-12-08T12:46:24.542Z,42.22
2022-12-08T12:48:52.273Z,40.22
2022-12-08T12:51:43.209Z,43.45
2022-12-08T12:54:26.569Z,41.72
2022-12-08T12:56:56.147Z,41.30
2022-12-08T12:59:29.183Z,42.25
2022-12-08T13:01:56.511Z,41.88
2022-12-08T13:04:33.116Z,42.85
2022-12-08T13:07:00.182Z,40.92
2022-12-08T13:09:37.014Z,39.88
2022-12-08T13:12:18.369Z,43.70
2022-12-08T13:14:50.340Z,38.58
2022-12-08T13:17:36.868Z,40.03
2022-12-08T13:20:10.818Z,41.53
2022-12-08T13:22:54.966Z,40.33
2022-12-08T13:25:40.179Z,39.40
2022-12-08T13:28:16.006Z,40.60
2022-12-08T13:30:58.320Z,40.30
2022-12-08T13:33:27.262Z,39.17
2022-12-08T13:36:06.219Z,39.53
2022-12-08T13:38:36.825Z,40.53
2022-12-08T13:41:28.988Z,41.47
2022-12-08T13:44:56.771Z,38.25
2022-12-08T13:47:31.668Z,39.47
2022-12-08T13:54:16.304Z,38.25
2022-12-08T13:58:49.636Z,36.90
2022-12-08T14:01:24.699Z,39.83
2022-12-08T14:04:33.793Z,36.92
2022-12-08T14:06:50.235Z,38.00
2022-12-08T14:09:27.570Z,37.42
2022-12-08T14:12:01.526Z,34.90
2022-12-08T14:17:29.489Z,37.47
2022-12-08T14:20:09.367Z,37.50
2022-12-08T14:22:38.731Z,38.30
2022-12-08T14:25:07.983Z,39.20
2022-12-08T14:27:37.307Z,37.47
2022-12-08T14:30:12.524Z,37.88
2022-12-08T14:32:39.425Z,37.92
2022-12-08T14:35:09.158Z,38.60
2022-12-08T14:37:56.968Z,37.50
2022-12-08T14:40:34.295Z,37.88
2022-12-08T14:43:09.744Z,37.65
2022-12-08T14:45:40.373Z,39.70
2022-12-08T14:48:19.602Z,39.90
2022-12-08T14:51:12.448Z,38.95
2022-12-08T14:53:46.336Z,35.45
2022-12-08T14:56:20.986Z,36.60
2022-12-08T14:58:50.206Z,36.03
2022-12-08T15:01:23.144Z,37.42
2022-12-08T15:03:51.555Z,38.08
2022-12-08T15:06:22.323Z,39.25
2022-12-08T15:08:58.960Z,39.63
2022-12-08T15:11:35.752Z,35.28
2022-12-08T15:14:02.963Z,37.38
2022-12-08T15:16:44.124Z,38.65
2022-12-08T15:19:27.388Z,36.42
2022-12-08T15:22:08.175Z,35.45
2022-12-08T15:24:34.851Z,35.63
2022-12-08T15:27:05.324Z,35.33
2022-12-08T15:29:31.947Z,35.65
2022-12-08T15:32:01.919Z,36.55
2022-12-08T15:34:28.728Z,35.50
2022-12-08T15:36:55.861Z,32.90
2022-12-08T15:39:37.977Z,34.67
2022-12-08T15:42:12.433Z,34.50
2022-12-08T15:44:39.431Z,38.35
2022-12-08T15:47:06.654Z,38.10
2022-12-08T15:49:33.491Z,37.72
2022-12-08T15:52:11.036Z,36.63
2022-12-08T15:54:38.169Z,38.95
2022-12-08T15:57:20.098Z,38.05
2022-12-08T15:59:52.262Z,37.42
2022-12-08T16:02:22.521Z,37.30
2022-12-08T16:07:37.516Z,36.45
2022-12-08T16:10:07.113Z,36.25
2022-12-08T16:12:57.153Z,36.33
2022-12-08T16:18:22.506Z,38.53
2022-12-08T16:23:44.635Z,37.92
2022-12-08T16:26:44.062Z,34.38
2022-12-08T16:29:05.676Z,35.90
2022-12-08T16:31:32.647Z,31.85
2022-12-08T16:33:59.482Z,35.30
2022-12-08T16:36:26.322Z,34.13
2022-12-08T16:38:52.983Z,35.70
2022-12-08T16:41:19.699Z,36.80
2022-12-08T16:43:46.534Z,39.65
2022-12-08T16:46:21.689Z,40.03
2022-12-08T16:48:48.402Z,39.65
2022-12-08T16:51:21.986Z,37.08
2022-12-08T16:53:52.935Z,37.03
2022-12-08T16:56:20.785Z,38.35
2022-12-08T16:58:47.961Z,39.22
2022-12-08T17:01:18.610Z,38.65
2022-12-08T17:04:07.190Z,40.72
2022-12-08T17:06:33.011Z,38.72
2022-12-08T17:09:00.633Z,37.78
2022-12-08T17:11:28.433Z,37.50
2022-12-08T17:13:55.033Z,31.92
2022-12-08T17:16:22.453Z,37.58
2022-12-08T17:18:53.437Z,34.92
2022-12-08T17:21:20.549Z,38.15
2022-12-08T17:23:47.519Z,38.10
2022-12-08T17:26:14.366Z,36.95
2022-12-08T17:29:00.019Z,36.85
2022-12-08T17:31:29.866Z,37.45
2022-12-08T17:34:11.526Z,37.42
2022-12-08T17:36:38.279Z,35.55
2022-12-08T17:39:05.960Z,35.97
2022-12-08T17:41:33.589Z,37.40
2022-12-08T17:44:00.372Z,38.75
2022-12-08T17:46:27.331Z,37.45
2022-12-08T17:48:54.432Z,38.58
2022-12-08T17:51:21.219Z,35.95
2022-12-08T17:53:47.967Z,35.15
2022-12-08T17:56:19.361Z,39.97
2022-12-08T17:58:51.298Z,37.42
2022-12-08T18:01:21.621Z,36.08
2022-12-08T18:03:48.390Z,39.25
2022-12-08T18:06:18.202Z,38.47
2022-12-08T18:08:45.779Z,37.97
2022-12-08T18:11:21.412Z,34.55
2022-12-08T18:13:49.737Z,36.00
2022-12-08T18:16:17.752Z,33.70
2022-12-08T18:18:44.629Z,31.00
2022-12-08T18:21:11.964Z,33.88
2022-12-08T18:23:41.005Z,29.38
2022-12-08T18:26:09.549Z,32.58
2022-12-08T18:28:37.566Z,30.00
2022-12-08T18:31:16.582Z,36.17
2022-12-08T18:33:44.854Z,37.00
2022-12-08T18:36:17.131Z,36.90
2022-12-08T18:38:47.996Z,34.63
2022-12-08T18:41:17.705Z,38.03
2022-12-08T18:43:46.224Z,38.33
2022-12-08T18:46:14.268Z,38.60
2022-12-08T18:48:46.369Z,37.83
2022-12-08T18:51:15.442Z,37.92
2022-12-08T18:53:44.573Z,36.63
2022-12-08T18:56:28.523Z,38.20
2022-12-08T18:59:02.603Z,36.33
2022-12-08T19:01:31.075Z,37.05
2022-12-08T19:04:26.704Z,38.97
2022-12-08T19:06:46.543Z,37.85
2022-12-08T19:09:13.287Z,37.47
2022-12-08T19:11:40.488Z,38.60
2022-12-08T19:14:11.459Z,39.38
2022-12-08T19:16:38.234Z,35.78
2022-12-08T19:19:08.010Z,36.75
2022-12-08T19:21:34.679Z,36.92
2022-12-08T19:24:01.422Z,34.78
2022-12-08T19:26:28.668Z,37.80
2022-12-08T19:28:55.620Z,38.22
2022-12-08T19:31:22.425Z,36.20
2022-12-08T19:33:49.113Z,35.97
2022-12-08T19:36:18.572Z,36.13
2022-12-08T19:38:45.714Z,36.00
2022-12-08T19:41:36.122Z,36.97
2022-12-08T19:44:03.084Z,33.40
2022-12-08T19:46:40.142Z,34.25
2022-12-08T19:49:07.463Z,34.30
2022-12-08T19:51:37.132Z,34.17
2022-12-08T19:54:06.270Z,34.95
2022-12-08T19:56:32.961Z,37.30
2022-12-08T19:59:03.568Z,34.85
2022-12-08T20:01:30.285Z,35.30
2022-12-08T20:03:57.026Z,35.42
2022-12-08T20:06:28.742Z,35.20
2022-12-08T20:08:55.722Z,35.38
2022-12-08T20:11:25.616Z,34.90
2022-12-08T20:14:00.317Z,35.70
2022-12-08T20:16:32.115Z,33.05
2022-12-08T20:19:00.923Z,35.58
2022-12-08T20:21:34.260Z,33.75
2022-12-08T20:24:00.998Z,32.88
2022-12-08T20:26:27.883Z,33.85
2022-12-08T20:28:54.771Z,34.38
2022-12-08T20:31:24.211Z,33.13
2022-12-08T20:33:52.272Z,34.83
2022-12-08T20:36:20.747Z,32.08
2022-12-08T20:38:49.188Z,32.47
2022-12-08T20:41:16.816Z,33.47
2022-12-08T20:43:44.992Z,33.42
2022-12-08T20:46:13.432Z,32.35
2022-12-08T20:48:40.937Z,33.38
2022-12-08T20:51:07.965Z,33.45
2022-12-08T20:53:34.753Z,31.58
2022-12-08T20:56:01.441Z,32.17
2022-12-08T20:58:28.144Z,32.47
2022-12-08T21:01:02.424Z,33.38
2022-12-08T21:03:30.332Z,33.83
2022-12-08T21:05:57.117Z,33.80
2022-12-08T21:08:24.147Z,33.03
2022-12-08T21:11:00.783Z,33.45
2022-12-08T21:13:28.574Z,33.70
2022-12-08T21:15:55.463Z,34.55
2022-12-08T21:18:23.293Z,31.48
2022-12-08T21:23:23.828Z,34.55
2022-12-08T21:25:54.303Z,32.53
2022-12-08T21:28:25.602Z,36.67
2022-12-08T21:30:52.313Z,33.90
2022-12-08T21:33:22.851Z,33.15
2022-12-08T21:35:49.605Z,33.03
2022-12-08T21:38:19.451Z,34.05
2022-12-08T21:40:46.318Z,36.42
2022-12-08T21:43:13.334Z,36.65
2022-12-08T21:45:40.025Z,35.60
2022-12-08T21:48:11.221Z,35.70
2022-12-08T21:50:40.492Z,37.35
2022-12-08T21:53:07.427Z,35.97
2022-12-08T21:55:34.206Z,34.10
2022-12-08T21:58:04.024Z,32.88
2022-12-08T22:00:30.839Z,37.30
2022-12-08T22:03:00.828Z,31.80
2022-12-08T22:05:27.987Z,35.25
2022-12-08T22:07:55.025Z,36.75
2022-12-08T22:10:22.060Z,35.13
2022-12-08T22:12:49.095Z,36.20
2022-12-08T22:15:15.861Z,34.92
2022-12-08T22:17:43.919Z,35.15
2022-12-08T22:20:13.434Z,34.72
2022-12-08T22:22:40.996Z,36.17
2022-12-08T22:25:12.140Z,33.88
2022-12-08T22:27:40.981Z,35.50
2022-12-08T22:30:08.678Z,37.08
2022-12-08T22:32:36.093Z,35.05
2022-12-08T22:35:02.787Z,35.38
2022-12-08T22:37:29.815Z,34.58
2022-12-08T22:40:04.829Z,34.65
2022-12-08T22:42:38.351Z,33.83
2022-12-08T22:45:08.871Z,35.63
2022-12-08T22:47:38.604Z,35.35
2022-12-08T22:50:21.666Z,38.25
2022-12-08T22:59:37.169Z,36.42
2022-12-08T23:01:49.937Z,34.55
2022-12-08T23:07:22.983Z,36.58
2022-12-08T23:13:32.226Z,32.70
2022-12-08T23:15:58.902Z,33.20
2022-12-08T23:18:25.602Z,34.92
2022-12-08T23:20:56.830Z,33.78
2022-12-08T23:26:32.571Z,30.80
2022-12-08T23:29:04.964Z,34.33
2022-12-08T23:32:00.895Z,34.33
2022-12-08T23:35:00.691Z,34.13
2022-12-08T23:37:33.221Z,32.90
2022-12-08T23:40:04.146Z,34.60
2022-12-08T23:42:51.520Z,36.03
2022-12-08T23:45:18.496Z,35.20
2022-12-08T23:48:58.595Z,35.83
2022-12-08T23:53:39.074Z,31.83
2022-12-08T23:56:08.984Z,33.28
